Mandan, ND

3:41 PM CDT on October 19, 2017 (GMT -0500)
Mandan

Weather History for KY19 - March, 2013

Change the Weather History Date:

Sunday, March 17, 2013

  Actual Average (KBIS) Record (KBIS)
Temperature  
Mean Temperature 18 °F -  
Max Temperature 26 °F 41 °F 74 °F (2012)
Min Temperature 10 °F 21 °F -25 °F (1875)
Degree Days  
Heating Degree Days 47    
Moisture  
Dew Point 15 °F    
Average Humidity 94    
Maximum Humidity 100    
Minimum Humidity 85    
Precipitation  
Precipitation 0.27 in - - ()
Sea Level Pressure  
Sea Level Pressure 29.72 in    
Wind  
Wind Speed 16 mph (SE)    
Max Wind Speed 32 mph    
Max Gust Speed 45 mph    
Visibility 8 miles    
Events Rain , Snow    
Averages and records for this station are not official NWS values.
T = Trace of Precipitation, MM = Missing Value Source: NWS Daily Summary

Daily Weather History Graph

Daily Weather History Graph

Search for Another Location

Airport or City:

Trip Planner

Search our weather history database for the weather conditions in past years. The results will help you decide how hot, cold, wet, or windy it might be!

Date:

Astronomy

Mar. 17, 2013 Rise Set
Actual Time 7:51 AM CDT 7:52 PM CDT
Civil Twilight 7:21 AM CDT 8:22 PM CDT
Nautical Twilight 6:46 AM CDT 8:58 PM CDT
Astronomical Twilight 6:10 AM CDT 9:34 PM CDT
Moon 10:45 AM CDT (3/17) 1:21 AM CDT (3/17)
Length of Visible Light 13h 01m
Length of Day
12h 00m
Waxing Crescent, 31% of the Moon is Illuminated
Mar 17
Waxing Crescent
Mar 19
First Quarter
Mar 27
Full
Apr 2
Last Quarter
Apr 10
New

Hourly Weather History & Observations

Time (CDT) Temp. Windchill Dew Point Humidity Pressure Visibility Wind Dir Wind Speed Gust Speed Precip Events Conditions
12:15 AM 10.4 °F -4.8 °F 6.8 °F 85% 30.11 in 10.0 mi SE 12.7 mph - N/A   Overcast
12:35 AM 10.4 °F -4.8 °F 6.8 °F 85% 30.12 in 10.0 mi SE 12.7 mph - N/A   Overcast
12:55 AM 10.4 °F -4.8 °F 6.8 °F 85% 30.09 in 9.0 mi ESE 12.7 mph - N/A Snow Light Snow
1:15 AM 10.4 °F -4.1 °F 8.6 °F 92% 30.09 in 9.0 mi ESE 11.5 mph - N/A Snow Light Snow
1:35 AM 10.4 °F -1.5 °F 8.6 °F 92% 30.09 in 3.0 mi SE 8.1 mph - 0.02 in Snow Light Snow
1:55 AM 10.4 °F -4.8 °F 8.6 °F 92% 30.07 in 3.0 mi SE 12.7 mph - 0.05 in Snow Light Snow
2:15 AM 10.4 °F -4.8 °F 8.6 °F 92% 30.05 in 3.0 mi ESE 12.7 mph - 0.01 in Snow Light Snow
2:35 AM 10.4 °F -4.8 °F 8.6 °F 92% 30.03 in 4.0 mi ESE 12.7 mph - 0.02 in Snow Light Snow
2:55 AM 10.4 °F -5.4 °F 10.4 °F 100% 30.03 in 4.0 mi SE 13.8 mph - 0.05 in Snow Light Snow
3:15 AM 10.4 °F -5.4 °F 10.4 °F 100% 30.02 in 7.0 mi SE 13.8 mph 20.7 mph N/A Snow Light Snow
3:35 AM 10.4 °F -7.2 °F 8.6 °F 92% 30.01 in 10.0 mi SE 17.3 mph - N/A   Overcast
3:55 AM 10.4 °F -6.0 °F 8.6 °F 92% 30.00 in 10.0 mi SE 15.0 mph - N/A   Overcast
4:15 AM 10.4 °F -6.0 °F 8.6 °F 92% 29.99 in 10.0 mi SE 15.0 mph 21.9 mph N/A   Overcast
4:35 AM 10.4 °F -7.7 °F 8.6 °F 92% 29.98 in 10.0 mi SE 18.4 mph 21.9 mph N/A Snow Light Snow
4:55 AM 10.4 °F -8.2 °F 8.6 °F 92% 29.96 in 10.0 mi SE 19.6 mph 24.2 mph N/A   Overcast
5:15 AM 10.4 °F -8.2 °F 8.6 °F 92% 29.95 in 10.0 mi SE 19.6 mph 25.3 mph N/A   Overcast
5:35 AM 10.4 °F -7.2 °F 8.6 °F 92% 29.94 in 10.0 mi SSE 17.3 mph 24.2 mph N/A   Overcast
5:55 AM 10.4 °F -7.2 °F 8.6 °F 92% 29.94 in 10.0 mi SE 17.3 mph 23.0 mph N/A   Overcast
6:15 AM 10.4 °F -7.2 °F 8.6 °F 92% 29.93 in 10.0 mi SE 17.3 mph - N/A   Overcast
6:35 AM 10.4 °F -7.7 °F 6.8 °F 85% 29.92 in 10.0 mi SE 18.4 mph 21.9 mph N/A   Overcast
6:55 AM 10.4 °F -9.1 °F 8.6 °F 92% 29.89 in 10.0 mi SE 21.9 mph 25.3 mph N/A   Overcast
7:15 AM 10.4 °F -7.7 °F 6.8 °F 85% 29.88 in 10.0 mi SE 18.4 mph 28.8 mph N/A   Overcast
7:35 AM 10.4 °F -7.7 °F 8.6 °F 92% 29.87 in 10.0 mi SE 18.4 mph 23.0 mph N/A   Overcast
7:55 AM 10.4 °F -7.7 °F 8.6 °F 92% 29.86 in 10.0 mi SE 18.4 mph - N/A   Overcast
8:15 AM 10.4 °F -9.1 °F 8.6 °F 92% 29.85 in 10.0 mi SE 21.9 mph - N/A   Overcast
8:35 AM 10.4 °F -8.6 °F 8.6 °F 92% 29.84 in 10.0 mi SE 20.7 mph - N/A   Overcast
8:55 AM 10.4 °F -8.2 °F 8.6 °F 92% 29.83 in 10.0 mi SE 19.6 mph 24.2 mph N/A   Overcast
9:15 AM 10.4 °F -7.7 °F 8.6 °F 92% 29.81 in 10.0 mi SE 18.4 mph 25.3 mph N/A   Mostly Cloudy
9:35 AM 10.4 °F -8.6 °F 8.6 °F 92% 29.80 in 10.0 mi SE 20.7 mph 25.3 mph N/A   Mostly Cloudy
10:15 AM 14.0 °F -3.4 °F 10.4 °F 86% 29.77 in 9.0 mi SE 19.6 mph 25.3 mph N/A   Overcast
10:35 AM 14.0 °F -2.5 °F 10.4 °F 86% 29.75 in 8.0 mi SE 17.3 mph 24.2 mph N/A   Mostly Cloudy
10:55 AM 14.0 °F -3.9 °F 12.2 °F 93% 29.74 in 8.0 mi SSE 20.7 mph 24.2 mph N/A Snow Light Snow
11:15 AM 15.8 °F -1.1 °F 12.2 °F 86% 29.73 in 10.0 mi SSE 19.6 mph 29.9 mph N/A   Mostly Cloudy
11:35 AM 15.8 °F -1.9 °F 14.0 °F 93% 29.71 in 10.0 mi SE 21.9 mph 25.3 mph N/A   Mostly Cloudy
11:55 AM 15.8 °F -1.5 °F 14.0 °F 93% 29.70 in 10.0 mi SE 20.7 mph 24.2 mph N/A   Mostly Cloudy
12:15 PM 15.8 °F -1.1 °F 14.0 °F 93% 29.69 in 10.0 mi SE 19.6 mph 24.2 mph N/A   Mostly Cloudy
12:35 PM 17.6 °F 0.9 °F 15.8 °F 93% 29.68 in 9.0 mi SE 20.7 mph 29.9 mph N/A   Mostly Cloudy
12:55 PM 17.6 °F 1.7 °F 15.8 °F 93% 29.66 in 10.0 mi SE 18.4 mph 28.8 mph N/A   Mostly Cloudy
1:15 PM 17.6 °F 0.5 °F 15.8 °F 93% 29.64 in 10.0 mi SE 21.9 mph 28.8 mph N/A   Scattered Clouds
1:35 PM 17.6 °F 1.7 °F 15.8 °F 93% 29.62 in 8.0 mi SE 18.4 mph 25.3 mph N/A   Scattered Clouds
1:55 PM 19.4 °F 4.1 °F 17.6 °F 93% 29.61 in 10.0 mi SE 18.4 mph 27.6 mph N/A   Mostly Cloudy
2:15 PM 19.4 °F 2.5 °F 17.6 °F 93% 29.60 in 9.0 mi SSE 23.0 mph 28.8 mph N/A   Overcast
2:35 PM 19.4 °F 2.5 °F 17.6 °F 93% 29.59 in 10.0 mi SE 23.0 mph 29.9 mph N/A   Overcast
2:55 PM 19.4 °F 2.5 °F 17.6 °F 93% 29.58 in 9.0 mi SSE 23.0 mph 27.6 mph N/A Snow Light Snow
3:15 PM 19.4 °F 2.8 °F 17.6 °F 93% 29.56 in 10.0 mi SE 21.9 mph 26.5 mph N/A   Overcast
3:35 PM 19.4 °F 4.5 °F 19.4 °F 100% 29.54 in 10.0 mi SE 17.3 mph 27.6 mph N/A   Overcast
3:55 PM 21.2 °F 6.0 °F 19.4 °F 93% 29.53 in 0.8 mi SE 19.6 mph 26.5 mph 0.03 in Snow Light Snow
4:15 PM 23.0 °F 9.2 °F 23.0 °F 100% 29.51 in 9.0 mi SE 17.3 mph 23.0 mph N/A   Overcast
4:35 PM 23.0 °F 9.2 °F 23.0 °F 100% 29.50 in 10.0 mi SE 17.3 mph - N/A   Overcast
4:55 PM 23.0 °F 9.2 °F 23.0 °F 100% 29.49 in 10.0 mi SE 17.3 mph 24.2 mph N/A   Overcast
5:15 PM 24.8 °F 11.1 °F 23.0 °F 93% 29.49 in 10.0 mi SE 18.4 mph 29.9 mph N/A   Overcast
5:35 PM 24.8 °F 10.7 °F 23.0 °F 93% 29.48 in 3.0 mi SE 19.6 mph 24.2 mph N/A Snow Light Snow
5:55 PM 24.8 °F 11.5 °F 23.0 °F 93% 29.48 in 1.0 mi SE 17.3 mph 23.0 mph 0.03 in Snow Light Snow
6:15 PM 24.8 °F 11.9 °F 24.8 °F 100% 29.47 in 0.8 mi ESE 16.1 mph 24.2 mph 0.02 in Snow Light Snow
6:35 PM 23.0 °F 10.1 °F 23.0 °F 100% 29.47 in 3.0 mi ESE 15.0 mph 20.7 mph 0.03 in Snow Light Snow
6:55 PM 24.8 °F 14.0 °F 24.8 °F 100% 29.47 in 10.0 mi ESE 11.5 mph - 0.04 in Rain Light Freezing Rain
7:15 PM 24.8 °F 14.0 °F 24.8 °F 100% 29.47 in 3.0 mi ESE 11.5 mph - N/A Rain Light Freezing Rain
7:35 PM 24.8 °F 14.0 °F 24.8 °F 100% 29.46 in 2.0 mi ESE 11.5 mph - 0.01 in Snow Light Snow
7:55 PM 24.8 °F 14.6 °F 24.8 °F 100% 29.46 in 3.0 mi ESE 10.4 mph - 0.02 in Rain Light Freezing Rain
8:15 PM 24.8 °F 19.1 °F 24.8 °F 100% 29.47 in 4.0 mi East 4.6 mph - N/A Snow Light Snow
8:35 PM 24.8 °F 20.5 °F 24.8 °F 100% 29.48 in 3.0 mi NE 3.5 mph - 0.01 in Snow Light Snow
8:55 PM 24.8 °F 20.5 °F 24.8 °F 100% 29.48 in 5.0 mi East 3.5 mph - 0.03 in Snow Light Snow
9:15 PM 24.8 °F - 24.8 °F 100% 29.48 in 4.0 mi Calm Calm - 0.01 in Snow Light Snow
9:35 PM 24.8 °F - 24.8 °F 100% 29.48 in 7.0 mi Calm Calm - 0.02 in Rain Light Freezing Rain
9:55 PM 24.8 °F 20.5 °F 24.8 °F 100% 29.49 in 7.0 mi West 3.5 mph - 0.02 in Rain Light Freezing Rain
10:15 PM 24.8 °F 14.6 °F 24.8 °F 100% 29.49 in 7.0 mi West 10.4 mph - N/A   Mostly Cloudy
10:35 PM 26.6 °F 13.1 °F 26.6 °F 100% 29.50 in 9.0 mi WNW 19.6 mph 27.6 mph N/A   Mostly Cloudy
10:55 PM 24.8 °F 10.7 °F 24.8 °F 100% 29.51 in 8.0 mi WNW 19.6 mph 29.9 mph N/A Snow Light Snow
11:15 PM 24.8 °F 8.7 °F 24.8 °F 100% 29.51 in 10.0 mi WNW 26.5 mph 34.5 mph N/A Rain Light Freezing Rain
11:35 PM 21.2 °F 2.4 °F 19.4 °F 93% 29.53 in 9.0 mi WNW 32.2 mph 41.4 mph N/A Snow Light Snow
11:55 PM 17.6 °F -1.9 °F 15.8 °F 93% 29.55 in 10.0 mi WNW 29.9 mph 44.9 mph N/A   Overcast